Time;durP1;ratioP1;P1;durP2;ratioP2;P2;SDS_P1;SDS_P2;PMS_P1;PMS_P2;Temp;Humidity;BMP_temperature;BMP_pressure;BME280_temperature;BME280_humidity;BME280_pressure;Samples;Min_cycle;Max_cycle;Signal;HPM_P1;HPM_P2
2023/10/27 00:01:32;;;;;;;15.75;4.10;;;;;;;10.42;100.00;96743.03;5063214;28;20043;-74
2023/10/27 00:03:57;;;;;;;12.32;3.67;;;;;;;10.38;100.00;96734.63;5062033;28;20045;-74
2023/10/27 00:06:23;;;;;;;18.17;4.40;;;;;;;10.41;100.00;96730.59;5061887;28;20029;-74
2023/10/27 00:08:48;;;;;;;16.50;4.43;;;;;;;10.47;100.00;96740.41;5058420;28;20034;-75
2023/10/27 00:11:13;;;;;;;9.57;3.10;;;;;;;10.40;100.00;96729.78;5061524;28;20249;-76
2023/10/27 00:13:39;;;;;;;14.98;3.33;;;;;;;10.39;100.00;96733.53;5061949;28;20025;-74
2023/10/27 00:16:09;;;;;;;13.38;3.78;;;;;;;10.38;100.00;96736.53;5064840;28;20027;-77
2023/10/27 00:18:35;;;;;;;17.33;4.10;;;;;;;10.37;100.00;96742.97;5056813;28;20085;-74
2023/10/27 00:21:00;;;;;;;12.02;3.60;;;;;;;10.40;100.00;96727.09;5061474;28;20021;-74
2023/10/27 00:23:25;;;;;;;9.85;3.80;;;;;;;10.34;100.00;96725.38;5062231;28;20326;-75
2023/10/27 00:25:51;;;;;;;12.88;3.50;;;;;;;10.38;100.00;96736.53;5056795;28;20349;-74
2023/10/27 00:28:17;;;;;;;12.98;4.05;;;;;;;10.40;100.00;96739.75;5059562;28;20024;-74
2023/10/27 00:30:42;;;;;;;10.95;3.47;;;;;;;10.37;100.00;96740.28;5059632;28;20021;-75
2023/10/27 00:33:07;;;;;;;9.45;3.45;;;;;;;10.29;100.00;96718.03;5062549;28;20029;-74
2023/10/27 00:35:33;;;;;;;7.65;3.17;;;;;;;10.35;100.00;96734.31;5063093;28;20032;-74
2023/10/27 00:38:00;;;;;;;12.73;3.70;;;;;;;10.17;100.00;96709.22;5063212;28;20092;-74
2023/10/27 00:40:25;;;;;;;10.73;3.25;;;;;;;10.28;100.00;96738.03;5063644;28;20172;-75
2023/10/27 00:42:50;;;;;;;9.90;3.72;;;;;;;10.25;100.00;96733.09;5060137;28;20021;-74
2023/10/27 00:45:16;;;;;;;10.25;3.88;;;;;;;10.17;100.00;96716.53;5060202;28;20028;-75
2023/10/27 00:47:42;;;;;;;10.05;3.90;;;;;;;10.27;100.00;96727.41;5062379;28;20029;-74
2023/10/27 00:50:07;;;;;;;11.35;3.70;;;;;;;10.28;100.00;96732.63;5046590;28;20254;-75
2023/10/27 00:52:34;;;;;;;7.30;3.20;;;;;;;10.24;100.00;96730.63;5055902;28;20048;-74
2023/10/27 00:55:00;;;;;;;8.32;3.63;;;;;;;10.25;100.00;96735.78;5051397;28;20052;-74
2023/10/27 00:57:27;;;;;;;12.82;4.18;;;;;;;10.23;100.00;96729.81;5060614;28;20029;-74
2023/10/27 00:59:53;;;;;;;18.17;3.72;;;;;;;10.16;100.00;96725.69;5060237;28;20285;-74
2023/10/27 01:02:18;;;;;;;13.57;4.00;;;;;;;10.20;100.00;96724.13;5059549;28;20027;-75
2023/10/27 01:04:44;;;;;;;13.57;3.45;;;;;;;10.19;100.00;96717.91;5061229;28;20029;-74
2023/10/27 01:07:09;;;;;;;6.18;3.17;;;;;;;10.09;100.00;96696.97;5053302;28;20079;-74
2023/10/27 01:09:35;;;;;;;7.22;3.22;;;;;;;10.17;100.00;96720.03;5058783;28;20029;-74
2023/10/27 01:12:00;;;;;;;9.32;3.30;;;;;;;10.08;100.00;96706.13;5057160;28;20035;-75
2023/10/27 01:14:27;;;;;;;15.68;3.97;;;;;;;10.14;100.00;96720.53;5058905;28;20334;-74
2023/10/27 01:16:52;;;;;;;11.30;3.45;;;;;;;10.10;100.00;96719.41;5061464;28;20025;-74
2023/10/27 01:19:18;;;;;;;9.35;3.63;;;;;;;10.02;100.00;96695.53;5057883;28;20060;-75
2023/10/27 01:21:44;;;;;;;14.32;4.03;;;;;;;10.01;100.00;96700.13;5069408;28;20206;-74
2023/10/27 01:24:09;;;;;;;16.05;3.80;;;;;;;10.00;100.00;96711.16;5064626;28;20021;-74
2023/10/27 01:26:34;;;;;;;11.15;3.80;;;;;;;9.81;100.00;96689.03;5060865;28;20055;-78
2023/10/27 01:29:00;;;;;;;10.82;3.47;;;;;;;9.99;100.00;96718.44;5061233;28;20195;-75
2023/10/27 01:31:26;;;;;;;10.35;3.13;;;;;;;9.95;100.00;96714.59;5059455;28;20032;-74
2023/10/27 01:33:51;;;;;;;10.30;2.88;;;;;;;9.91;100.00;96708.09;5049542;28;20029;-75
2023/10/27 01:36:16;;;;;;;12.38;2.90;;;;;;;9.92;100.00;96707.00;5053267;28;20032;-74
2023/10/27 01:38:41;;;;;;;13.70;3.00;;;;;;;9.91;100.00;96696.47;5061812;28;20199;-75
2023/10/27 01:41:07;;;;;;;6.97;2.88;;;;;;;9.97;100.00;96703.56;5060697;28;20029;-73
2023/10/27 01:43:32;;;;;;;11.55;2.95;;;;;;;9.86;100.00;96694.53;5060081;28;20017;-75
2023/10/27 01:45:57;;;;;;;7.50;2.92;;;;;;;9.93;100.00;96705.97;5057407;28;20016;-75
2023/10/27 01:48:23;;;;;;;10.43;2.97;;;;;;;9.84;100.00;96683.13;5045131;28;20025;-74
2023/10/27 01:50:49;;;;;;;9.13;2.63;;;;;;;9.92;100.00;96690.81;5060941;28;20017;-74
2023/10/27 01:53:15;;;;;;;13.52;3.03;;;;;;;9.87;100.00;96694.25;5054049;28;20373;-75
2023/10/27 01:55:40;;;;;;;8.27;2.95;;;;;;;9.89;100.00;96702.13;5059640;28;20020;-74
2023/10/27 01:58:05;;;;;;;7.63;3.03;;;;;;;9.92;100.00;96707.00;5054385;28;20028;-74
2023/10/27 02:00:31;;;;;;;9.45;2.72;;;;;;;9.84;100.00;96683.13;5060553;28;20051;-75
2023/10/27 02:02:56;;;;;;;6.00;2.50;;;;;;;9.79;100.00;96670.38;5083865;23;20094;-75
2023/10/27 02:05:21;;;;;;;12.23;2.67;;;;;;;9.85;100.00;96679.34;5044404;28;20027;-76
2023/10/27 02:07:47;;;;;;;12.93;3.47;;;;;;;9.82;100.00;96679.88;5062229;28;20055;-76
2023/10/27 02:10:12;;;;;;;6.53;2.75;;;;;;;9.71;100.00;96662.72;5054711;28;20025;-76
2023/10/27 02:12:37;;;;;;;8.40;2.65;;;;;;;9.81;100.00;96680.94;5038988;28;20091;-76
2023/10/27 02:15:03;;;;;;;8.38;2.67;;;;;;;9.65;100.00;96658.34;5061038;28;20032;-77
2023/10/27 02:17:29;;;;;;;9.35;2.75;;;;;;;9.78;100.00;96684.97;5044431;28;20021;-75
2023/10/27 02:19:55;;;;;;;10.23;2.42;;;;;;;9.72;100.00;96669.78;5044204;28;20040;-76
2023/10/27 02:22:21;;;;;;;11.13;2.45;;;;;;;9.81;100.00;96689.03;5055379;28;20028;-76
2023/10/27 02:24:46;;;;;;;9.65;2.38;;;;;;;9.69;100.00;96667.53;5042014;28;20080;-76
2023/10/27 02:27:12;;;;;;;10.05;2.53;;;;;;;9.79;100.00;96683.06;5040939;28;20032;-76
2023/10/27 02:29:37;;;;;;;7.18;2.03;;;;;;;9.71;100.00;96668.13;5061411;28;20024;-75
2023/10/27 02:32:03;;;;;;;9.55;2.50;;;;;;;9.76;100.00;96684.38;5033442;28;20116;-76
2023/10/27 02:34:28;;;;;;;7.70;2.00;;;;;;;9.74;100.00;96678.41;5047551;28;20230;-76
2023/10/27 02:36:53;;;;;;;8.40;2.10;;;;;;;9.76;100.00;96684.38;5043746;28;20097;-76
2023/10/27 02:39:19;;;;;;;7.78;2.20;;;;;;;9.71;100.00;96678.91;5051755;28;20096;-76
2023/10/27 02:41:44;;;;;;;7.22;2.03;;;;;;;9.55;100.00;96645.50;5050829;28;20355;-76
2023/10/27 02:44:09;;;;;;;9.13;2.00;;;;;;;9.77;100.00;96687.91;5054830;28;20040;-76
2023/10/27 02:46:35;;;;;;;7.28;2.35;;;;;;;9.78;100.00;96687.66;5040402;28;20028;-76
2023/10/27 02:49:03;;;;;;;7.28;1.80;;;;;;;9.58;100.00;96663.09;5058178;28;20091;-75
2023/10/27 02:51:28;;;;;;;7.40;2.13;;;;;;;9.48;100.00;96641.34;5037525;28;20056;-75
2023/10/27 02:53:53;;;;;;;7.03;2.00;;;;;;;9.61;100.00;96654.47;5050776;28;20206;-76
2023/10/27 02:56:19;;;;;;;6.10;1.80;;;;;;;9.74;100.00;96673.00;5060878;28;20040;-76
2023/10/27 02:58:44;;;;;;;4.07;2.08;;;;;;;9.67;100.00;96667.00;5047461;28;20012;-76
2023/10/27 03:01:11;;;;;;;4.57;1.65;;;;;;;9.70;100.00;96666.50;5035666;28;20021;-77
2023/10/27 03:03:36;;;;;;;5.32;1.85;;;;;;;9.62;100.00;96664.25;5045661;28;20021;-80
2023/10/27 03:06:03;;;;;;;10.18;2.10;;;;;;;9.77;100.00;96672.53;5040502;28;20032;-78
2023/10/27 03:08:28;;;;;;;8.63;1.95;;;;;;;9.66;100.00;96666.16;5046833;28;20029;-77
2023/10/27 03:10:53;;;;;;;7.72;1.73;;;;;;;9.68;100.00;96668.63;5065322;28;20052;-78
2023/10/27 03:13:20;;;;;;;12.73;1.83;;;;;;;9.50;100.00;96631.13;5038603;28;20036;-78
2023/10/27 03:15:46;;;;;;;9.02;1.98;;;;;;;9.59;100.00;96653.94;5063277;28;20362;-77
2023/10/27 03:18:12;;;;;;;5.10;1.77;;;;;;;9.70;100.00;96666.50;5043336;28;20092;-79
2023/10/27 03:20:37;;;;;;;9.93;1.83;;;;;;;9.71;100.00;96664.59;5045120;28;20067;-79
2023/10/27 03:23:03;;;;;;;5.78;1.95;;;;;;;9.69;100.00;96659.44;5046304;28;20028;-79
2023/10/27 03:25:28;;;;;;;6.47;2.05;;;;;;;9.60;100.00;96663.66;5049557;28;20048;-79
2023/10/27 03:27:53;;;;;;;6.25;1.88;;;;;;;9.60;100.00;96655.56;5045008;28;20333;-76
2023/10/27 03:30:19;;;;;;;4.20;1.60;;;;;;;9.57;100.00;96661.47;5040467;28;20317;-74
2023/10/27 03:32:44;;;;;;;8.32;1.88;;;;;;;9.55;100.00;96650.09;5045565;28;20163;-74
2023/10/27 03:35:09;;;;;;;7.80;1.88;;;;;;;9.56;100.00;96654.41;5046807;28;20028;-74
2023/10/27 03:37:34;;;;;;;4.57;1.35;;;;;;;9.56;100.00;96649.00;5063156;28;20025;-74
2023/10/27 03:40:01;;;;;;;3.10;1.52;;;;;;;9.66;100.00;96659.94;5037373;28;20049;-74
2023/10/27 03:42:27;;;;;;;7.07;1.60;;;;;;;9.59;100.00;96651.25;5062790;28;20021;-74
2023/10/27 03:44:52;;;;;;;8.05;1.80;;;;;;;9.62;100.00;96667.75;5045365;28;20029;-74
2023/10/27 03:47:17;;;;;;;4.80;1.45;;;;;;;9.62;100.00;96664.25;5035095;28;20155;-74
2023/10/27 03:49:42;;;;;;;6.35;1.70;;;;;;;9.54;100.00;96643.06;5040606;28;20040;-76
2023/10/27 03:52:10;;;;;;;5.43;1.70;;;;;;;9.56;100.00;96652.56;5053608;28;20057;-75
2023/10/27 03:54:35;;;;;;;6.15;1.42;;;;;;;9.44;100.00;96635.66;5063807;28;20224;-76
2023/10/27 03:57:01;;;;;;;4.88;1.85;;;;;;;9.54;100.00;96651.16;5053291;28;20029;-76
2023/10/27 03:59:27;;;;;;;7.32;1.80;;;;;;;9.43;100.00;96642.09;5046272;28;20029;-76
2023/10/27 04:01:52;;;;;;;3.70;1.70;;;;;;;9.48;100.00;96634.06;5044649;28;20061;-75
2023/10/27 04:04:18;;;;;;;6.95;1.55;;;;;;;9.45;100.00;96629.16;5039252;28;20321;-78
2023/10/27 04:06:45;;;;;;;6.18;1.60;;;;;;;9.42;100.00;96621.59;5042540;28;20021;-80
2023/10/27 04:09:10;;;;;;;4.35;1.85;;;;;;;9.46;100.00;96641.63;5046000;28;20025;-84
2023/10/27 04:11:36;;;;;;;9.85;2.30;;;;;;;9.40;100.00;96619.13;5056006;28;20021;-81
2023/10/27 04:14:02;;;;;;;8.52;3.85;;;;;;;9.31;100.00;96607.13;5047336;28;20025;-78
2023/10/27 04:16:27;;;;;;;7.32;2.38;;;;;;;9.30;100.00;96616.31;5056784;28;20033;-76
2023/10/27 04:18:52;;;;;;;7.60;2.35;;;;;;;9.26;100.00;96609.75;5043223;28;20055;-76
2023/10/27 04:21:18;;;;;;;4.43;1.67;;;;;;;9.27;100.00;96597.91;5041604;28;20318;-78
2023/10/27 04:23:44;;;;;;;10.25;1.50;;;;;;;9.35;100.00;96610.97;5038009;28;20067;-78
2023/10/27 04:26:11;;;;;;;7.90;1.50;;;;;;;9.40;100.00;96616.41;5042844;28;20033;-79
2023/10/27 04:28:36;;;;;;;5.00;1.33;;;;;;;9.34;100.00;96611.22;5037169;28;20285;-78
2023/10/27 04:31:01;;;;;;;5.57;1.90;;;;;;;9.34;100.00;96608.53;5042500;28;20028;-79
2023/10/27 04:33:27;;;;;;;6.35;1.85;;;;;;;9.28;100.00;96604.94;5039019;28;20036;-80
2023/10/27 04:35:52;;;;;;;5.53;1.55;;;;;;;9.35;100.00;96613.69;5059300;28;20025;-81
2023/10/27 04:38:18;;;;;;;6.90;2.30;;;;;;;9.46;100.00;96644.31;5055324;28;20025;-75
2023/10/27 04:40:43;;;;;;;6.15;1.75;;;;;;;9.44;100.00;96644.56;5052666;28;20033;-79
2023/10/27 04:43:08;;;;;;;5.15;1.70;;;;;;;9.35;100.00;96629.88;5043911;28;20021;-75
2023/10/27 04:45:34;;;;;;;11.20;2.00;;;;;;;9.40;100.00;96646.09;5056345;28;20490;-73
2023/10/27 04:47:59;;;;;;;4.13;2.10;;;;;;;9.38;100.00;96642.88;5062278;28;20058;-73
2023/10/27 04:50:24;;;;;;;9.18;2.00;;;;;;;9.49;100.00;96651.91;5037744;28;20322;-76
2023/10/27 04:52:50;;;;;;;4.63;1.92;;;;;;;9.44;100.00;96649.16;5047750;28;20021;-77
2023/10/27 04:55:15;;;;;;;6.15;2.13;;;;;;;9.36;100.00;96634.19;5039073;28;20033;-75
2023/10/27 04:57:41;;;;;;;4.88;2.10;;;;;;;9.41;100.00;96638.84;5037641;28;20039;-76
2023/10/27 05:00:10;;;;;;;6.65;2.03;;;;;;;9.35;100.00;96629.88;5062077;28;20325;-78
2023/10/27 05:02:35;;;;;;;7.10;1.75;;;;;;;9.30;100.00;96624.41;5035604;28;20091;-79
2023/10/27 05:05:00;;;;;;;7.78;2.10;;;;;;;9.36;100.00;96634.19;5031884;28;20036;-80
2023/10/27 05:07:26;;;;;;;6.65;1.83;;;;;;;9.35;100.00;96632.56;5051210;28;20029;-81
2023/10/27 05:09:51;;;;;;;4.90;1.58;;;;;;;9.43;100.00;96648.34;5054360;28;20052;-84
2023/10/27 05:12:17;;;;;;;3.63;2.20;;;;;;;9.32;100.00;96635.75;5047977;28;20025;-81
2023/10/27 05:14:42;;;;;;;9.70;2.30;;;;;;;9.37;100.00;96641.22;5037933;28;20040;-79
2023/10/27 05:17:08;;;;;;;5.35;1.70;;;;;;;9.32;100.00;96635.75;5035695;28;20056;-77
2023/10/27 05:19:34;;;;;;;5.88;1.75;;;;;;;9.28;100.00;96637.31;5045063;28;20032;-76
2023/10/27 05:22:03;;;;;;;4.22;1.67;;;;;;;9.27;100.00;96630.28;5031380;28;20082;-74
2023/10/27 05:24:28;;;;;;;4.78;2.03;;;;;;;9.29;100.00;96632.75;5038825;28;20032;-76
2023/10/27 05:26:54;;;;;;;2.58;1.80;;;;;;;9.22;100.00;96622.09;5061868;28;20028;-76
2023/10/27 05:29:19;;;;;;;5.70;2.15;;;;;;;9.30;100.00;96650.53;5065633;28;20036;-84
2023/10/27 05:31:46;;;;;;;7.28;2.15;;;;;;;9.32;100.00;96643.03;5035046;28;20022;-82
2023/10/27 05:34:12;;;;;;;6.03;2.10;;;;;;;9.33;100.00;96674.38;5059790;28;20100;-79
2023/10/27 05:36:37;;;;;;;4.05;1.45;;;;;;;9.23;100.00;96660.72;5055713;28;20032;-80
2023/10/27 05:39:02;;;;;;;9.60;1.98;;;;;;;8.97;100.00;96620.69;5045107;28;20020;-81
2023/10/27 05:41:28;;;;;;;6.20;1.70;;;;;;;9.27;100.00;96664.53;5043673;28;20029;-83
2023/10/27 05:43:54;;;;;;;8.63;2.03;;;;;;;9.15;100.00;96641.19;5048841;28;20032;-80
2023/10/27 05:46:20;;;;;;;5.75;2.05;;;;;;;9.28;100.00;96661.59;5046405;28;20044;-79
2023/10/27 05:48:46;;;;;;;5.22;1.70;;;;;;;9.31;100.00;96663.81;5036338;28;20028;-78
2023/10/27 05:51:11;;;;;;;4.78;2.25;;;;;;;9.15;100.00;96638.47;5053332;28;20028;-77
2023/10/27 05:53:36;;;;;;;7.80;2.25;;;;;;;9.32;100.00;96668.13;5051113;28;20021;-85
2023/10/27 05:56:01;;;;;;;10.75;2.80;;;;;;;9.36;100.00;96681.97;5059897;28;20063;-69
2023/10/27 05:58:32;;;;;;;13.02;3.65;;;;;;;9.30;100.00;96677.53;5043940;28;20029;-69
2023/10/27 06:00:58;;;;;;;16.73;2.85;;;;;;;9.27;100.00;96691.53;5057332;28;20024;-69
2023/10/27 06:03:23;;;;;;;5.57;2.10;;;;;;;9.16;100.00;96683.28;5054749;28;20260;-69
2023/10/27 06:05:48;;;;;;;7.88;2.10;;;;;;;9.28;100.00;96693.97;5035362;28;20020;-69
2023/10/27 06:08:13;;;;;;;7.53;2.15;;;;;;;9.31;100.00;96693.47;5029633;28;20029;-69
2023/10/27 06:10:40;;;;;;;5.20;2.40;;;;;;;9.24;100.00;96690.13;5055335;28;20029;-74
2023/10/27 06:13:05;;;;;;;5.95;2.00;;;;;;;9.29;100.00;96700.19;5040619;28;20021;-69
2023/10/27 06:15:30;;;;;;;11.82;2.42;;;;;;;9.11;100.00;96702.06;5045927;28;20043;-77
2023/10/27 06:17:56;;;;;;;7.60;2.10;;;;;;;9.14;100.00;96706.16;5043711;28;20095;-81
2023/10/27 06:20:22;;;;;;;8.40;2.08;;;;;;;9.17;100.00;96709.19;5051158;28;20032;-79
2023/10/27 06:22:47;;;;;;;4.07;2.05;;;;;;;9.26;100.00;96731.19;5038382;28;20059;-78
2023/10/27 06:25:13;;;;;;;5.47;1.70;;;;;;;9.13;100.00;96705.34;5044482;28;20249;-79
2023/10/27 06:27:38;;;;;;;8.35;2.20;;;;;;;9.16;100.00;96728.31;5063806;28;20312;-80
2023/10/27 06:30:05;;;;;;;7.95;2.38;;;;;;;9.23;100.00;96737.06;5046140;28;20020;-81
2023/10/27 06:32:31;;;;;;;8.52;2.42;;;;;;;9.21;100.00;96733.78;5039003;28;20025;-78
2023/10/27 06:34:56;;;;;;;9.10;2.50;;;;;;;9.25;100.00;96734.97;5042432;28;20024;-78
2023/10/27 06:37:21;;;;;;;5.35;2.50;;;;;;;9.20;100.00;96724.09;5045093;28;20240;-76
2023/10/27 06:39:47;;;;;;;4.65;2.28;;;;;;;9.22;100.00;96724.63;5036810;28;20017;-71
2023/10/27 06:42:12;;;;;;;6.72;2.88;;;;;;;9.20;100.00;96729.47;5041994;28;20046;-74
2023/10/27 06:44:37;;;;;;;5.88;2.80;;;;;;;9.24;100.00;96760.28;5045786;28;20028;-75
2023/10/27 06:47:03;;;;;;;12.27;4.13;;;;;;;9.26;100.00;96751.97;5039394;28;20021;-73
2023/10/27 06:49:28;;;;;;;4.97;2.90;;;;;;;9.16;100.00;96739.91;5064061;28;20029;-73
2023/10/27 06:51:53;;;;;;;6.43;2.90;;;;;;;9.13;100.00;96735.03;5058658;28;20032;-72
2023/10/27 06:54:18;;;;;;;11.82;4.15;;;;;;;9.39;100.00;96757.03;5059615;28;20028;-72
2023/10/27 06:56:44;;;;;;;9.65;4.22;;;;;;;9.33;100.00;96741.81;5041128;28;20253;-72
2023/10/27 06:59:09;;;;;;;6.22;3.90;;;;;;;9.42;100.00;96754.63;5036632;28;20074;-80
2023/10/27 07:01:35;;;;;;;9.25;3.38;;;;;;;9.41;100.00;96750.31;5043895;28;20027;-71
2023/10/27 07:04:00;;;;;;;9.82;3.63;;;;;;;9.60;100.00;96761.66;5049362;28;20017;-71
2023/10/27 07:06:25;;;;;;;5.68;3.80;;;;;;;9.46;100.00;96752.28;5062244;28;20059;-71
2023/10/27 07:08:51;;;;;;;11.07;4.20;;;;;;;9.51;100.00;96759.63;5053141;28;20024;-71
2023/10/27 07:11:16;;;;;;;12.30;4.38;;;;;;;9.49;100.00;96764.47;5057452;28;20029;-71
2023/10/27 07:13:42;;;;;;;7.65;4.32;;;;;;;9.53;100.00;96768.28;5057110;28;20028;-82
2023/10/27 07:16:07;;;;;;;11.80;3.85;;;;;;;9.46;100.00;96763.09;5038262;28;20100;-79
2023/10/27 07:18:32;;;;;;;7.63;3.55;;;;;;;9.43;100.00;96768.94;5038505;28;20089;-82
2023/10/27 07:20:58;;;;;;;7.80;4.00;;;;;;;9.51;100.00;96767.72;5037262;28;20628;-83
2023/10/27 07:23:23;;;;;;;6.15;3.53;;;;;;;9.52;100.00;96766.66;5038460;28;20344;-81
2023/10/27 07:25:49;;;;;;;10.82;3.50;;;;;;;9.60;100.00;96775.16;5054689;28;20100;-75
2023/10/27 07:28:14;;;;;;;5.70;3.38;;;;;;;9.56;100.00;96773.19;5058412;28;20032;-76
2023/10/27 07:30:40;;;;;;;5.15;2.70;;;;;;;9.62;100.00;96772.22;5039718;28;20096;-76
2023/10/27 07:33:05;;;;;;;4.32;2.47;;;;;;;9.65;100.00;96782.53;5052241;28;20234;-75
2023/10/27 07:35:33;;;;;;;4.40;2.42;;;;;;;9.74;100.00;96778.31;5055683;28;20029;-74
2023/10/27 07:37:59;;;;;;;5.93;2.22;;;;;;;9.75;100.00;96776.47;5037970;28;20340;-75
2023/10/27 07:40:25;;;;;;;7.80;2.33;;;;;;;9.72;100.00;96774.25;5063728;28;20024;-72
2023/10/27 07:42:51;;;;;;;3.85;1.85;;;;;;;9.81;100.00;96780.88;5057245;28;20092;-72
2023/10/27 07:45:16;;;;;;;6.75;2.20;;;;;;;9.80;100.00;96780.06;5037661;28;20104;-74
2023/10/27 07:47:41;;;;;;;2.90;1.67;;;;;;;9.83;100.00;96779.56;5064085;28;20036;-76
2023/10/27 07:50:07;;;;;;;2.78;1.40;;;;;;;9.80;100.00;96774.66;5033765;28;20071;-75
2023/10/27 07:52:33;;;;;;;3.85;1.33;;;;;;;9.97;100.00;96774.59;5060926;28;20033;-77
2023/10/27 07:55:00;;;;;;;1.77;0.98;;;;;;;10.18;100.00;96785.69;5042065;28;20072;-78
2023/10/27 07:57:28;;;;;;;3.92;1.30;;;;;;;10.27;100.00;96779.66;5036171;28;20025;-74
2023/10/27 07:59:54;;;;;;;2.88;1.55;;;;;;;10.36;100.00;96765.69;5035935;28;20025;-74
2023/10/27 08:02:19;;;;;;;4.07;1.23;;;;;;;10.55;100.00;96777.78;5062390;28;20043;-74
2023/10/27 08:04:44;;;;;;;2.80;1.15;;;;;;;10.66;100.00;96774.16;5040078;28;20029;-75
2023/10/27 08:07:10;;;;;;;3.67;0.90;;;;;;;10.74;100.00;96773.69;5036821;28;20032;-76
2023/10/27 08:09:36;;;;;;;4.03;0.95;;;;;;;10.84;100.00;96780.28;5042117;28;20149;-74
2023/10/27 08:12:03;;;;;;;3.20;0.70;;;;;;;10.99;100.00;96785.84;5040665;28;20021;-73
2023/10/27 08:14:28;;;;;;;1.08;0.60;;;;;;;11.09;100.00;96790.53;5044822;28;20025;-75
2023/10/27 08:16:54;;;;;;;3.40;0.70;;;;;;;11.19;100.00;96780.63;5054189;28;20088;-75
2023/10/27 08:19:19;;;;;;;1.85;0.75;;;;;;;11.65;100.00;96798.31;5057929;28;20029;-73
2023/10/27 08:21:46;;;;;;;3.17;0.73;;;;;;;12.02;100.00;96792.91;5040809;28;20021;-75
2023/10/27 08:24:12;;;;;;;1.70;0.88;;;;;;;11.78;100.00;96782.44;5045621;28;20025;-74
2023/10/27 08:26:38;;;;;;;1.55;0.82;;;;;;;11.85;100.00;96774.91;5058158;28;20028;-73
2023/10/27 08:29:03;;;;;;;2.85;0.88;;;;;;;11.59;100.00;96801.00;5049907;28;20029;-73
2023/10/27 08:31:29;;;;;;;2.30;1.08;;;;;;;11.76;100.00;96805.44;5056456;28;20041;-72
2023/10/27 08:33:54;;;;;;;2.28;0.85;;;;;;;11.69;100.00;96805.69;5053443;28;20368;-76
2023/10/27 08:36:19;;;;;;;4.05;0.70;;;;;;;11.57;100.00;96807.75;5047842;28;20031;-78
2023/10/27 08:38:45;;;;;;;1.30;0.60;;;;;;;11.59;100.00;96813.72;5043859;28;20043;-75
2023/10/27 08:41:10;;;;;;;3.03;0.30;;;;;;;11.36;100.00;96807.56;5061482;28;20033;-73
2023/10/27 08:43:37;;;;;;;0.60;0.25;;;;;;;11.35;100.00;96832.22;5060887;28;20040;-71
2023/10/27 08:46:05;;;;;;;0.95;0.20;;;;;;;11.12;100.00;96819.81;5048303;28;20037;-75
2023/10/27 08:48:32;;;;;;;2.63;0.20;;;;;;;11.10;100.00;96827.34;5045163;28;20028;-75
2023/10/27 08:51:04;;;;;;;0.22;0.10;;;;;;;11.11;100.00;96832.53;5045024;28;20032;-69
2023/10/27 08:53:30;;;;;;;1.30;0.30;;;;;;;10.97;100.00;96826.66;5046907;28;20353;-69
2023/10/27 08:55:56;;;;;;;1.17;0.20;;;;;;;11.02;100.00;96844.84;5047643;28;20037;-68
2023/10/27 08:58:23;;;;;;;2.17;0.30;;;;;;;11.08;100.00;96845.72;5057884;28;20025;-69
2023/10/27 09:00:48;;;;;;;0.90;0.20;;;;;;;11.06;100.00;96854.13;5060708;28;20033;-68
2023/10/27 09:03:17;;;;;;;0.30;0.10;;;;;;;11.08;100.00;96849.28;5041210;28;20058;-69
2023/10/27 09:05:44;;;;;;;0.90;0.20;;;;;;;11.17;100.00;96842.31;5055549;28;20025;-68
2023/10/27 09:08:09;;;;;;;2.45;0.28;;;;;;;11.26;100.00;96839.16;5050567;28;20052;-68
2023/10/27 09:10:36;;;;;;;0.52;0.20;;;;;;;11.25;100.00;96830.22;5043568;28;20326;-68
2023/10/27 09:13:01;;;;;;;0.17;0.00;;;;;;;11.54;100.00;96838.88;5052907;28;20032;-69
2023/10/27 09:15:40;;;;;;;0.17;0.10;;;;;;;11.77;100.00;96826.88;5061904;28;20028;-68
2023/10/27 09:18:05;;;;;;;1.00;0.13;;;;;;;12.57;100.00;96840.38;5050290;28;20021;-68
2023/10/27 09:20:31;;;;;;;2.08;0.00;;;;;;;12.81;100.00;96810.09;5051606;28;20321;-69
2023/10/27 09:23:04;;;;;;;0.10;0.10;;;;;;;13.22;100.00;96819.16;5056235;28;20040;-68
2023/10/27 09:25:31;;;;;;;0.20;0.10;;;;;;;13.28;100.00;96818.13;5053836;28;20051;-68
2023/10/27 09:28:01;;;;;;;1.17;0.13;;;;;;;14.61;100.00;96817.97;5061658;28;20060;-69
2023/10/27 09:30:37;;;;;;;0.10;0.00;;;;;;;14.77;100.00;96812.47;5039977;28;20024;-68
2023/10/27 09:33:18;;;;;;;0.90;0.20;;;;;;;14.47;100.00;96819.66;5051481;28;20326;-69
2023/10/27 09:35:48;;;;;;;0.35;0.10;;;;;;;14.04;100.00;96816.47;5053614;28;20238;-69
2023/10/27 09:38:14;;;;;;;1.27;0.20;;;;;;;14.51;100.00;96825.34;5060341;28;20346;-68
2023/10/27 09:40:41;;;;;;;0.38;0.10;;;;;;;14.69;100.00;96809.22;5055305;28;20040;-68
2023/10/27 09:43:19;;;;;;;0.00;0.00;;;;;;;14.57;100.00;96835.97;5051594;28;20037;-69
2023/10/27 09:45:57;;;;;;;1.33;0.10;;;;;;;13.91;100.00;96819.75;5048617;28;20031;-69
2023/10/27 09:48:27;;;;;;;0.47;0.10;;;;;;;13.36;100.00;96839.31;5059690;28;20036;-69
2023/10/27 09:51:10;;;;;;;1.35;0.20;;;;;;;12.89;100.00;96840.25;5052299;28;20021;-69
2023/10/27 09:53:37;;;;;;;0.10;0.03;;;;;;;12.93;100.00;96846.78;5054345;28;20044;-68
2023/10/27 09:56:03;;;;;;;1.17;0.13;;;;;;;13.08;100.00;96850.63;5051991;28;20048;-70
2023/10/27 09:58:33;;;;;;;0.55;0.20;;;;;;;12.78;100.00;96851.31;5053223;28;20481;-74
2023/10/27 10:01:01;;;;;;;0.32;0.30;;;;;;;12.69;100.00;96872.72;5059107;28;20033;-70
2023/10/27 10:03:29;;;;;;;0.50;0.20;;;;;;;12.52;100.00;96869.38;5055774;28;20375;-70
2023/10/27 10:06:15;;;;;;;0.65;0.20;;;;;;;12.69;100.00;96878.16;5025353;28;20021;-69
2023/10/27 10:09:01;;;;;;;0.32;0.10;;;;;;;12.66;100.00;96881.41;5047016;28;20249;-75
2023/10/27 10:11:26;;;;;;;0.22;0.10;;;;;;;12.32;100.00;96868.19;5033960;28;20028;-70
2023/10/27 10:13:51;;;;;;;1.48;0.20;;;;;;;12.21;100.00;96882.78;5051525;28;20022;-70
2023/10/27 10:16:17;;;;;;;0.30;0.13;;;;;;;12.27;100.00;96898.81;5053831;28;20255;-69
2023/10/27 10:18:54;;;;;;;0.10;0.10;;;;;;;11.99;100.00;96899.94;5058612;28;20029;-69
2023/10/27 10:21:37;;;;;;;0.65;0.20;;;;;;;12.01;100.00;96924.91;5046387;28;20096;-69
2023/10/27 10:24:03;;;;;;;0.30;0.20;;;;;;;12.05;100.00;96919.78;5053507;28;20062;-77
2023/10/27 10:27:06;;;;;;;0.50;0.20;;;;;;;12.37;100.00;96910.81;5051454;28;20025;-69
2023/10/27 10:29:35;;;;;;;1.33;0.25;;;;;;;12.94;100.00;96905.41;5055270;28;20226;-69
2023/10/27 10:32:29;;;;;;;0.75;0.30;;;;;;;13.80;100.00;96893.13;5050919;28;20140;-70
2023/10/27 10:35:37;;;;;;;1.08;0.28;;;;;;;13.53;100.00;96896.09;5036098;28;20040;-70
2023/10/27 10:38:22;;;;;;;1.25;0.22;;;;;;;13.78;100.00;96895.34;5038579;28;20099;-70
2023/10/27 10:40:59;;;;;;;0.43;0.25;;;;;;;13.99;100.00;96889.88;5026026;28;20093;-70
2023/10/27 10:43:30;;;;;;;2.65;0.32;;;;;;;13.70;100.00;96895.88;5054961;28;20033;-70
2023/10/27 10:46:03;;;;;;;1.52;0.30;;;;;;;13.11;100.00;96904.38;5037968;28;20052;-69
2023/10/27 10:48:30;;;;;;;1.10;0.30;;;;;;;12.92;100.00;96918.44;5042108;28;20071;-69
2023/10/27 10:51:03;;;;;;;1.15;0.40;;;;;;;13.12;100.00;96914.16;5031146;28;20067;-70
2023/10/27 10:53:28;;;;;;;0.30;0.20;;;;;;;13.59;100.00;96913.22;5054563;28;20062;-69
2023/10/27 10:55:58;;;;;;;2.13;0.30;;;;;;;15.43;100.00;96888.41;5058707;28;20309;-70
2023/10/27 10:58:29;;;;;;;1.13;0.30;;;;;;;16.17;100.00;96864.69;5052689;28;20017;-70
2023/10/27 11:00:56;;;;;;;1.65;0.50;;;;;;;15.83;100.00;96877.53;5057242;28;20043;-72
2023/10/27 11:03:24;;;;;;;2.15;0.30;;;;;;;16.44;100.00;96861.44;5057122;28;20028;-70
2023/10/27 11:05:57;;;;;;;1.50;0.40;;;;;;;16.17;100.00;96877.53;5041338;28;20026;-75
2023/10/27 11:08:27;;;;;;;1.02;0.20;;;;;;;18.01;100.00;96858.03;5063547;28;20020;-75
2023/10/27 11:11:09;;;;;;;2.08;0.32;;;;;;;19.69;100.00;96846.50;5044635;28;20017;-74
2023/10/27 11:13:45;;;;;;;1.15;0.30;;;;;;;21.55;100.00;96845.94;5034754;28;20021;-76
2023/10/27 11:16:18;;;;;;;1.48;0.30;;;;;;;21.90;100.00;96866.00;5041699;28;20032;-78
2023/10/27 11:18:44;;;;;;;0.82;0.30;;;;;;;22.41;100.00;96855.28;5057602;28;20364;-78
2023/10/27 11:21:17;;;;;;;2.95;0.43;;;;;;;22.04;100.00;96844.63;5047240;28;20033;-70
2023/10/27 11:23:43;;;;;;;1.85;0.45;;;;;;;21.91;100.00;96850.31;5036277;28;20060;-73
2023/10/27 11:26:08;;;;;;;1.75;0.38;;;;;;;20.44;100.00;96873.50;5059355;28;20099;-70
2023/10/27 11:28:38;;;;;;;2.72;0.50;;;;;;;18.78;100.00;96862.97;5052239;28;20114;-70